createdAt,value
2019-02-14T00:00:11.625Z,15.40
2019-02-14T00:01:11.632Z,15.80
2019-02-14T00:02:11.607Z,15.10
2019-02-14T00:03:19.127Z,12.60
2019-02-14T00:04:11.578Z,12.70
2019-02-14T00:05:16.547Z,14.20
2019-02-14T00:06:12.581Z,13.20
2019-02-14T00:07:11.553Z,13.40
2019-02-14T00:08:11.544Z,16.00
2019-02-14T00:09:11.555Z,12.30
2019-02-14T00:10:11.516Z,14.30
2019-02-14T00:11:11.528Z,14.30
2019-02-14T00:12:11.515Z,14.20
2019-02-14T00:13:11.514Z,14.30
2019-02-14T00:14:11.478Z,13.70
2019-02-14T00:15:11.461Z,16.30
2019-02-14T00:16:11.473Z,14.80
2019-02-14T00:17:11.459Z,15.30
2019-02-14T00:18:11.464Z,14.90
2019-02-14T00:19:11.429Z,16.80
2019-02-14T00:20:11.408Z,13.30
2019-02-14T00:21:11.395Z,16.50
2019-02-14T00:22:11.409Z,14.00
2019-02-14T00:23:11.391Z,14.10
2019-02-14T00:24:11.369Z,15.80
2019-02-14T00:25:11.355Z,15.80
2019-02-14T00:26:11.368Z,15.30
2019-02-14T00:27:11.394Z,14.20
2019-02-14T00:28:11.349Z,16.10
2019-02-14T00:29:11.373Z,15.20
2019-02-14T00:30:11.311Z,15.10
2019-02-14T00:31:11.323Z,13.40
2019-02-14T00:32:11.305Z,14.00
2019-02-14T00:33:11.266Z,14.00
2019-02-14T00:34:11.257Z,16.20
2019-02-14T00:35:11.240Z,14.30
2019-02-14T00:36:11.233Z,15.50
2019-02-14T00:37:11.249Z,15.40
2019-02-14T00:38:11.240Z,14.60
2019-02-14T00:39:11.200Z,13.50
2019-02-14T00:40:11.198Z,16.50
2019-02-14T00:41:11.180Z,13.50
2019-02-14T00:42:11.222Z,14.50
2019-02-14T00:43:11.180Z,15.00
2019-02-14T00:44:11.182Z,13.60
2019-02-14T00:45:11.137Z,14.80
2019-02-14T00:46:11.122Z,13.60
2019-02-14T00:47:11.112Z,14.20
2019-02-14T00:48:11.118Z,14.80
2019-02-14T00:49:11.094Z,14.20
2019-02-14T00:50:11.077Z,15.10
2019-02-14T00:51:11.072Z,13.20
2019-02-14T00:52:11.068Z,14.80
2019-02-14T00:53:11.069Z,13.30
2019-02-14T00:54:11.047Z,14.90
2019-02-14T00:55:11.038Z,15.70
2019-02-14T00:56:11.073Z,13.30
2019-02-14T00:57:11.002Z,17.30
2019-02-14T00:58:11.023Z,14.90
2019-02-14T00:59:10.980Z,13.90
2019-02-14T01:00:10.973Z,15.00
2019-02-14T01:01:10.979Z,13.80
2019-02-14T01:02:10.951Z,15.40
2019-02-14T01:03:19.894Z,14.10
2019-02-14T01:04:10.925Z,14.50
2019-02-14T01:05:10.923Z,15.60
2019-02-14T01:06:10.936Z,14.60
2019-02-14T01:07:10.898Z,13.40
2019-02-14T01:08:10.925Z,13.80
2019-02-14T01:09:10.871Z,14.10
2019-02-14T01:10:10.862Z,15.70
2019-02-14T01:11:10.865Z,14.70
2019-02-14T01:12:10.845Z,14.30
2019-02-14T01:13:10.839Z,14.10
2019-02-14T01:14:10.877Z,15.30
2019-02-14T01:15:10.816Z,15.30
2019-02-14T01:16:10.803Z,13.50
2019-02-14T01:17:10.791Z,14.70
2019-02-14T01:18:10.807Z,14.90
2019-02-14T01:19:10.786Z,14.80
2019-02-14T01:20:10.762Z,15.20
2019-02-14T01:21:10.756Z,13.50
2019-02-14T01:22:10.779Z,12.90
2019-02-14T01:23:10.774Z,13.90
2019-02-14T01:24:10.761Z,13.80
2019-02-14T01:25:10.714Z,15.80
2019-02-14T01:26:10.689Z,13.90
2019-02-14T01:27:10.694Z,13.70
2019-02-14T01:28:10.686Z,14.80
2019-02-14T01:29:10.678Z,16.30
2019-02-14T01:30:10.651Z,13.80
2019-02-14T01:31:10.694Z,13.60
2019-02-14T01:32:10.627Z,16.00
2019-02-14T01:33:10.620Z,13.90
2019-02-14T01:34:10.632Z,14.70
2019-02-14T01:35:10.623Z,12.60
2019-02-14T01:36:10.590Z,13.70
2019-02-14T01:37:10.601Z,13.30
2019-02-14T01:38:10.567Z,16.40
2019-02-14T01:39:10.604Z,13.60
2019-02-14T01:40:10.545Z,14.30
2019-02-14T01:41:10.539Z,13.70
2019-02-14T01:42:10.526Z,14.40
2019-02-14T01:43:10.517Z,14.20
2019-02-14T01:44:10.522Z,13.80
2019-02-14T01:45:10.495Z,15.70
2019-02-14T01:46:10.484Z,12.70
2019-02-14T01:47:10.475Z,13.50
2019-02-14T01:48:10.464Z,13.20
2019-02-14T01:49:10.490Z,14.50
2019-02-14T01:50:10.442Z,14.90
2019-02-14T01:51:10.434Z,14.50
2019-02-14T01:52:10.432Z,14.90
2019-02-14T01:53:10.406Z,15.50
2019-02-14T01:54:10.399Z,16.20
2019-02-14T01:55:10.402Z,12.90
2019-02-14T01:56:10.383Z,16.00
2019-02-14T01:57:10.394Z,14.30
2019-02-14T01:58:10.352Z,15.70
2019-02-14T01:59:10.408Z,14.90
2019-02-14T02:00:10.356Z,16.30
2019-02-14T02:01:10.321Z,14.40
2019-02-14T02:02:10.320Z,14.50
2019-02-14T02:03:10.309Z,13.80
2019-02-14T02:04:10.296Z,13.90
2019-02-14T02:05:10.298Z,14.10
2019-02-14T02:06:10.305Z,16.80
2019-02-14T02:07:10.264Z,13.00
2019-02-14T02:08:10.248Z,15.60
2019-02-14T02:09:10.240Z,14.50
2019-02-14T02:10:10.250Z,15.60
2019-02-14T02:11:10.242Z,14.90
2019-02-14T02:12:10.219Z,14.90
2019-02-14T02:13:10.220Z,17.50
2019-02-14T02:14:10.187Z,16.50
2019-02-14T02:15:10.225Z,12.70
2019-02-14T02:16:10.188Z,15.40
2019-02-14T02:17:10.152Z,14.30
2019-02-14T02:18:10.143Z,14.20
2019-02-14T02:19:10.151Z,13.90
2019-02-14T02:20:10.126Z,15.90
2019-02-14T02:21:10.135Z,13.10
2019-02-14T02:22:10.144Z,14.40
2019-02-14T02:23:10.121Z,14.40
2019-02-14T02:24:10.079Z,13.90
2019-02-14T02:25:10.090Z,12.90
2019-02-14T02:26:10.093Z,13.50
2019-02-14T02:27:10.053Z,18.10
2019-02-14T02:28:10.051Z,13.90
2019-02-14T02:29:10.030Z,14.90
2019-02-14T02:30:10.042Z,13.80
2019-02-14T02:31:10.030Z,18.70
2019-02-14T02:32:09.996Z,14.70
2019-02-14T02:33:09.987Z,13.80
2019-02-14T02:34:09.973Z,13.50
2019-02-14T02:35:09.966Z,13.00
2019-02-14T02:36:09.978Z,14.30
2019-02-14T02:37:09.946Z,12.80
2019-02-14T02:38:09.948Z,16.40
2019-02-14T02:39:09.946Z,14.70
2019-02-14T02:40:09.921Z,14.50
2019-02-14T02:41:09.905Z,13.10
2019-02-14T02:42:09.904Z,13.80
2019-02-14T02:43:09.878Z,15.50
2019-02-14T02:44:09.872Z,15.10
2019-02-14T02:45:09.857Z,13.30
2019-02-14T02:46:09.844Z,15.80
2019-02-14T02:47:09.849Z,14.50
2019-02-14T02:48:09.824Z,15.70
2019-02-14T02:49:09.814Z,15.30
2019-02-14T02:50:17.342Z,16.50
2019-02-14T02:51:09.789Z,15.60
2019-02-14T02:52:09.810Z,15.60
2019-02-14T02:53:09.810Z,17.60
2019-02-14T02:54:09.765Z,17.10
2019-02-14T02:55:09.754Z,18.10
2019-02-14T02:56:09.753Z,16.40
2019-02-14T02:57:09.769Z,16.60
2019-02-14T02:58:17.260Z,17.00
2019-02-14T02:59:09.710Z,15.30
2019-02-14T03:00:09.694Z,14.80
2019-02-14T03:01:09.688Z,13.40
2019-02-14T03:02:09.691Z,14.30
2019-02-14T03:03:09.663Z,16.70
2019-02-14T03:04:09.662Z,15.00
2019-02-14T03:05:09.643Z,14.60
2019-02-14T03:06:10.814Z,14.30
2019-02-14T03:07:09.639Z,16.30
2019-02-14T03:08:09.633Z,14.90
2019-02-14T03:09:09.597Z,14.70
2019-02-14T03:10:09.590Z,14.50
2019-02-14T03:11:09.595Z,16.50
2019-02-14T03:12:09.586Z,16.20
2019-02-14T03:13:09.577Z,13.90
2019-02-14T03:14:09.549Z,14.70
2019-02-14T03:15:09.535Z,13.50
2019-02-14T03:16:09.525Z,15.40
2019-02-14T03:17:09.541Z,14.40
2019-02-14T03:18:09.523Z,14.30
2019-02-14T03:19:09.536Z,15.80
2019-02-14T03:20:09.499Z,14.70
2019-02-14T03:21:09.465Z,14.60
2019-02-14T03:22:09.473Z,16.50
2019-02-14T03:23:09.478Z,17.40
2019-02-14T03:24:09.439Z,17.00
2019-02-14T03:25:09.425Z,15.40
2019-02-14T03:26:09.457Z,14.00
2019-02-14T03:27:09.422Z,15.40
2019-02-14T03:28:09.387Z,14.90
2019-02-14T03:29:09.408Z,14.00
2019-02-14T03:30:09.392Z,14.80
2019-02-14T03:31:09.363Z,13.70
2019-02-14T03:32:09.389Z,13.70
2019-02-14T03:33:09.360Z,12.90
2019-02-14T03:34:09.326Z,15.00
2019-02-14T03:35:09.325Z,15.10
2019-02-14T03:36:09.303Z,15.60
2019-02-14T03:37:09.301Z,13.80
2019-02-14T03:38:09.304Z,14.40
2019-02-14T03:39:09.284Z,15.80
2019-02-14T03:40:09.261Z,15.90
2019-02-14T03:41:09.249Z,14.70
2019-02-14T03:42:09.327Z,16.20
2019-02-14T03:43:09.269Z,15.40
2019-02-14T03:44:09.223Z,14.00
2019-02-14T03:45:09.276Z,14.70
2019-02-14T03:46:09.194Z,15.60
2019-02-14T03:47:09.186Z,14.20
2019-02-14T03:48:09.218Z,14.40
2019-02-14T03:49:09.166Z,14.00
2019-02-14T03:50:09.161Z,13.00
2019-02-14T03:51:09.168Z,14.70
2019-02-14T03:52:09.156Z,14.60
2019-02-14T03:53:09.144Z,15.90
2019-02-14T03:54:09.112Z,13.40
2019-02-14T03:55:09.114Z,15.60
2019-02-14T03:56:09.090Z,17.00
2019-02-14T03:57:09.081Z,14.00
2019-02-14T03:58:09.109Z,14.70
2019-02-14T03:59:09.066Z,15.30
2019-02-14T04:00:09.051Z,17.40
2019-02-14T04:01:09.079Z,14.60
2019-02-14T04:02:09.025Z,13.60
2019-02-14T04:03:09.039Z,15.10
2019-02-14T04:04:09.000Z,15.20
2019-02-14T04:05:08.992Z,14.40
2019-02-14T04:06:09.004Z,14.90
2019-02-14T04:07:09.654Z,18.10
2019-02-14T04:08:08.981Z,16.10
2019-02-14T04:09:08.969Z,14.80
2019-02-14T04:10:08.946Z,15.00
2019-02-14T04:11:08.960Z,13.60
2019-02-14T04:12:08.922Z,15.20
2019-02-14T04:13:08.907Z,15.90
2019-02-14T04:14:08.940Z,14.20
2019-02-14T04:15:08.886Z,16.30
2019-02-14T04:16:08.879Z,15.30
2019-02-14T04:17:08.862Z,17.60
2019-02-14T04:18:08.865Z,14.40
2019-02-14T04:19:08.869Z,14.10
2019-02-14T04:20:08.856Z,14.10
2019-02-14T04:21:08.826Z,15.00
2019-02-14T04:22:08.829Z,14.70
2019-02-14T04:23:08.826Z,16.00
2019-02-14T04:24:08.811Z,16.00
2019-02-14T04:25:08.780Z,15.90
2019-02-14T04:26:08.772Z,18.60
2019-02-14T04:27:08.784Z,17.40
2019-02-14T04:28:08.744Z,15.20
2019-02-14T04:29:08.775Z,17.60
2019-02-14T04:30:08.725Z,16.00
2019-02-14T04:31:08.717Z,15.10
2019-02-14T04:32:08.702Z,16.20
2019-02-14T04:33:08.701Z,16.70
2019-02-14T04:34:08.709Z,16.10
2019-02-14T04:35:08.670Z,16.70
2019-02-14T04:36:08.662Z,17.00
2019-02-14T04:37:08.664Z,14.50
2019-02-14T04:38:08.641Z,16.80
2019-02-14T04:39:08.730Z,18.40
2019-02-14T04:40:08.643Z,15.80
2019-02-14T04:41:08.609Z,14.90
2019-02-14T04:42:08.609Z,14.90
2019-02-14T04:43:08.590Z,14.40
2019-02-14T04:44:08.636Z,15.90
2019-02-14T04:45:08.583Z,16.90
2019-02-14T04:46:08.576Z,16.20
2019-02-14T04:47:08.546Z,14.80
2019-02-14T04:48:08.537Z,15.10
2019-02-14T04:49:08.538Z,16.00
2019-02-14T04:50:08.537Z,16.00
2019-02-14T04:51:08.500Z,15.50
2019-02-14T04:52:08.504Z,15.00
2019-02-14T04:53:08.517Z,18.50
2019-02-14T04:54:08.507Z,17.10
2019-02-14T04:55:08.456Z,16.30
2019-02-14T04:56:08.447Z,14.90
2019-02-14T04:57:08.454Z,16.30
2019-02-14T04:58:08.424Z,15.50
2019-02-14T04:59:08.477Z,16.30
2019-02-14T05:00:08.448Z,15.70
2019-02-14T05:01:08.402Z,18.80
2019-02-14T05:02:15.937Z,17.60
2019-02-14T05:03:08.368Z,17.80
2019-02-14T05:04:08.363Z,17.50
2019-02-14T05:05:08.364Z,15.10
2019-02-14T05:06:08.339Z,17.20
2019-02-14T05:07:08.718Z,15.20
2019-02-14T05:08:08.326Z,16.00
2019-02-14T05:09:08.307Z,18.40
2019-02-14T05:10:08.314Z,18.10
2019-02-14T05:11:08.279Z,15.80
2019-02-14T05:12:08.291Z,16.00
2019-02-14T05:13:08.266Z,18.50
2019-02-14T05:14:08.248Z,18.10
2019-02-14T05:15:08.258Z,15.90
2019-02-14T05:16:08.230Z,16.80
2019-02-14T05:18:36.981Z,14.10
2019-02-14T05:19:36.936Z,17.50
2019-02-14T05:20:36.984Z,17.50
2019-02-14T05:21:36.915Z,14.80
2019-02-14T05:22:36.908Z,16.30
2019-02-14T05:23:36.914Z,14.50
2019-02-14T05:24:36.885Z,14.00
2019-02-14T05:25:36.884Z,15.50
2019-02-14T05:26:36.883Z,15.00
2019-02-14T05:27:36.858Z,16.20
2019-02-14T05:28:36.852Z,16.90
2019-02-14T05:29:36.834Z,18.10
2019-02-14T05:30:36.824Z,17.00
2019-02-14T05:31:37.612Z,16.70
2019-02-14T05:32:36.798Z,17.80
2019-02-14T05:33:36.787Z,16.40
2019-02-14T05:34:36.794Z,16.10
2019-02-14T05:35:36.767Z,17.30
2019-02-14T05:36:37.032Z,18.70
2019-02-14T05:37:36.751Z,18.80
2019-02-14T05:38:44.295Z,19.80
2019-02-14T05:39:36.726Z,21.20
2019-02-14T05:40:36.720Z,21.00
2019-02-14T05:41:36.752Z,18.30
2019-02-14T05:42:36.812Z,21.50
2019-02-14T05:43:36.689Z,19.90
2019-02-14T05:44:44.244Z,20.30
2019-02-14T05:45:36.670Z,16.60
2019-02-14T05:46:45.477Z,17.90
2019-02-14T05:47:36.664Z,19.40
2019-02-14T05:48:36.634Z,22.00
2019-02-14T05:49:44.163Z,23.30
2019-02-14T05:50:36.615Z,21.30
2019-02-14T05:52:46.861Z,15.40
2019-02-14T05:53:46.824Z,20.80
2019-02-14T05:54:46.911Z,18.80
2019-02-14T05:55:46.825Z,20.40
2019-02-14T05:56:46.833Z,20.80
2019-02-14T05:57:46.783Z,20.00
2019-02-14T05:58:46.771Z,17.10
2019-02-14T05:59:46.796Z,17.30
2019-02-14T06:00:46.752Z,17.70
2019-02-14T06:01:46.757Z,17.50
2019-02-14T06:02:46.736Z,16.80
2019-02-14T06:03:54.282Z,16.30
2019-02-14T06:04:46.715Z,15.60
2019-02-14T06:05:54.269Z,18.70
2019-02-14T06:06:46.733Z,17.10
2019-02-14T06:07:46.682Z,16.20
2019-02-14T06:08:46.793Z,18.20
2019-02-14T06:09:46.668Z,17.90
2019-02-14T06:10:46.670Z,20.90
2019-02-14T06:11:46.662Z,22.10
2019-02-14T06:12:46.871Z,20.10
2019-02-14T06:13:46.624Z,19.50
2019-02-14T06:14:46.737Z,23.20
2019-02-14T06:15:46.601Z,20.50
2019-02-14T06:16:46.666Z,19.70
2019-02-14T06:17:46.578Z,20.20
2019-02-14T06:18:46.615Z,20.30
2019-02-14T06:19:46.565Z,19.60
2019-02-14T06:20:46.551Z,22.10
2019-02-14T06:21:46.607Z,21.80
2019-02-14T06:22:46.643Z,22.30
2019-02-14T06:23:46.519Z,19.80
2019-02-14T06:26:03.995Z,14.30
2019-02-14T06:27:03.977Z,15.50
2019-02-14T06:28:04.202Z,19.50
2019-02-14T06:29:03.934Z,16.70
2019-02-14T06:30:04.042Z,17.10
2019-02-14T06:31:03.920Z,17.70
2019-02-14T06:32:03.911Z,20.80
2019-02-14T06:33:03.888Z,20.50
2019-02-14T06:34:03.867Z,17.80
2019-02-14T06:35:03.853Z,16.20
2019-02-14T06:36:03.986Z,19.90
2019-02-14T06:37:09.480Z,17.50
2019-02-14T06:38:04.862Z,16.50
2019-02-14T06:39:03.811Z,16.00
2019-02-14T06:40:03.807Z,18.50
2019-02-14T06:41:03.817Z,17.70
2019-02-14T06:42:03.788Z,18.20
2019-02-14T06:43:03.798Z,16.60
2019-02-14T06:44:03.763Z,17.40
2019-02-14T06:45:03.755Z,18.30
2019-02-14T06:46:03.792Z,17.50
2019-02-14T06:47:04.801Z,18.10
2019-02-14T06:48:03.741Z,15.90
2019-02-14T06:49:03.712Z,16.50
2019-02-14T06:50:03.700Z,16.10
2019-02-14T06:51:03.737Z,16.10
2019-02-14T06:52:03.681Z,16.60
2019-02-14T06:53:03.714Z,19.40
2019-02-14T06:54:03.684Z,19.60
2019-02-14T06:55:03.648Z,16.60
2019-02-14T06:56:03.706Z,17.40
2019-02-14T06:57:03.626Z,17.60
2019-02-14T06:58:03.622Z,20.50
2019-02-14T06:59:03.638Z,17.50
2019-02-14T07:00:03.616Z,18.80
2019-02-14T07:01:03.582Z,16.90
2019-02-14T07:02:03.572Z,16.10
2019-02-14T07:03:03.565Z,20.30
2019-02-14T07:04:03.571Z,16.20
2019-02-14T07:05:03.583Z,16.60
2019-02-14T07:06:03.550Z,17.50
2019-02-14T07:07:03.519Z,16.30
2019-02-14T07:08:03.508Z,14.40
2019-02-14T07:09:03.525Z,16.30
2019-02-14T07:10:03.506Z,16.00
2019-02-14T07:11:03.518Z,20.70
2019-02-14T07:12:03.480Z,14.90
2019-02-14T07:13:03.495Z,17.10
2019-02-14T07:14:03.448Z,18.10
2019-02-14T07:15:03.462Z,16.70
2019-02-14T07:16:03.448Z,14.90
2019-02-14T07:17:03.421Z,15.20
2019-02-14T07:18:03.423Z,19.70
2019-02-14T07:19:03.398Z,15.80
2019-02-14T07:20:03.405Z,16.90
2019-02-14T07:21:03.388Z,16.60
2019-02-14T07:22:03.356Z,17.60
2019-02-14T07:23:03.378Z,16.40
2019-02-14T07:24:03.352Z,17.10
2019-02-14T07:25:03.366Z,16.80
2019-02-14T07:26:03.336Z,15.10
2019-02-14T07:27:03.314Z,19.50
2019-02-14T07:28:03.296Z,14.00
2019-02-14T07:29:03.292Z,14.60
2019-02-14T07:30:03.299Z,15.60
2019-02-14T07:31:03.270Z,14.20
2019-02-14T07:32:03.251Z,14.30
2019-02-14T07:33:03.244Z,17.50
2019-02-14T07:34:04.101Z,17.80
2019-02-14T07:35:03.266Z,15.30
2019-02-14T07:36:03.242Z,17.90
2019-02-14T07:37:03.208Z,14.60
2019-02-14T07:38:03.191Z,14.90
2019-02-14T07:39:03.186Z,15.30
2019-02-14T07:40:03.206Z,16.50
2019-02-14T07:41:03.164Z,15.20
2019-02-14T07:42:03.168Z,15.30
2019-02-14T07:43:03.138Z,19.60
2019-02-14T07:44:03.123Z,16.70
2019-02-14T07:45:03.130Z,18.10
2019-02-14T07:46:03.156Z,15.40
2019-02-14T07:47:03.099Z,14.80
2019-02-14T07:48:03.103Z,16.60
2019-02-14T07:49:03.069Z,16.00
2019-02-14T07:50:03.100Z,16.80
2019-02-14T07:51:03.047Z,16.20
2019-02-14T07:52:03.047Z,16.30
2019-02-14T07:53:10.579Z,17.40
2019-02-14T07:54:10.581Z,16.30
2019-02-14T07:56:20.818Z,14.00
2019-02-14T07:58:30.018Z,18.20
2019-02-14T08:00:39.251Z,22.80
2019-02-14T08:01:39.221Z,22.40
2019-02-14T08:02:39.207Z,21.10
2019-02-14T08:03:39.199Z,18.00
2019-02-14T08:04:47.738Z,17.30
2019-02-14T08:05:39.193Z,31.50
2019-02-14T08:06:39.173Z,14.90
2019-02-14T08:07:39.160Z,14.60
2019-02-14T08:08:39.155Z,14.60
2019-02-14T08:09:39.139Z,14.90
2019-02-14T08:10:39.149Z,14.50
2019-02-14T08:11:39.157Z,14.60
2019-02-14T08:12:39.120Z,14.70
2019-02-14T08:13:39.105Z,15.50
2019-02-14T08:14:39.113Z,14.90
2019-02-14T08:15:39.076Z,17.90
2019-02-14T08:16:39.100Z,15.10
2019-02-14T08:17:39.059Z,14.90
2019-02-14T08:18:39.049Z,17.20
2019-02-14T08:19:39.046Z,19.30
2019-02-14T08:20:39.024Z,15.30
2019-02-14T08:21:39.029Z,15.40
2019-02-14T08:22:39.002Z,15.00
2019-02-14T08:23:39.014Z,16.80
2019-02-14T08:24:38.983Z,14.60
2019-02-14T08:25:39.016Z,16.30
2019-02-14T08:26:38.983Z,16.40
2019-02-14T08:27:38.955Z,19.30
2019-02-14T08:28:38.940Z,14.40
2019-02-14T08:29:38.935Z,17.40
2019-02-14T08:30:38.951Z,15.30
2019-02-14T08:31:38.906Z,15.40
2019-02-14T08:32:38.895Z,16.40
2019-02-14T08:33:46.437Z,14.70
2019-02-14T08:34:38.870Z,14.90
2019-02-14T08:35:38.857Z,19.50
2019-02-14T08:36:38.871Z,16.10
2019-02-14T08:37:44.957Z,16.40
2019-02-14T08:38:39.871Z,15.30
2019-02-14T08:39:38.821Z,16.10
2019-02-14T08:40:38.812Z,20.50
2019-02-14T08:41:38.825Z,15.90
2019-02-14T08:42:38.797Z,18.50
2019-02-14T08:43:38.778Z,20.60
2019-02-14T08:44:38.767Z,14.00
2019-02-14T08:45:38.752Z,15.20
2019-02-14T08:46:38.766Z,12.80
2019-02-14T08:47:38.733Z,18.20
2019-02-14T08:48:38.738Z,17.00
2019-02-14T08:49:38.718Z,18.30
2019-02-14T08:50:38.708Z,17.70
2019-02-14T08:51:38.717Z,14.50
2019-02-14T08:52:38.702Z,16.30
2019-02-14T08:53:38.674Z,17.60
2019-02-14T08:54:38.655Z,13.50
2019-02-14T08:55:38.670Z,15.60
2019-02-14T08:56:38.667Z,14.70
2019-02-14T08:57:38.629Z,18.70
2019-02-14T08:58:38.621Z,22.30
2019-02-14T08:59:38.624Z,15.20
2019-02-14T09:00:38.593Z,17.30
2019-02-14T09:01:38.598Z,16.60
2019-02-14T09:02:38.572Z,16.90
2019-02-14T09:03:38.568Z,16.30
2019-02-14T09:04:38.548Z,15.50
2019-02-14T09:05:38.537Z,17.00
2019-02-14T09:06:38.553Z,18.80
2019-02-14T09:07:38.531Z,15.90
2019-02-14T09:08:38.509Z,20.50
2019-02-14T09:09:38.505Z,18.50
2019-02-14T09:10:38.517Z,16.90
2019-02-14T09:11:38.483Z,17.80
2019-02-14T09:12:38.481Z,16.00
2019-02-14T09:13:38.480Z,18.00
2019-02-14T09:14:38.467Z,16.90
2019-02-14T09:15:38.445Z,16.00
2019-02-14T09:16:38.425Z,17.10
2019-02-14T09:17:38.445Z,18.00
2019-02-14T09:18:38.403Z,18.00
2019-02-14T09:19:38.399Z,15.10
2019-02-14T09:20:38.379Z,17.30
2019-02-14T09:21:38.376Z,16.60
2019-02-14T09:22:38.381Z,16.10
2019-02-14T09:23:38.371Z,15.80
2019-02-14T09:24:38.344Z,16.20
2019-02-14T09:25:38.337Z,16.70
2019-02-14T09:26:38.324Z,14.90
2019-02-14T09:27:38.323Z,18.20
2019-02-14T09:28:38.316Z,15.60
2019-02-14T09:29:38.285Z,15.20
2019-02-14T09:30:38.295Z,16.60
2019-02-14T09:31:38.272Z,16.80
2019-02-14T09:32:38.279Z,14.80
2019-02-14T09:33:38.267Z,17.20
2019-02-14T09:34:38.290Z,16.20
2019-02-14T09:35:38.223Z,14.00
2019-02-14T09:36:38.221Z,16.80
2019-02-14T09:37:38.217Z,16.50
2019-02-14T09:38:38.234Z,15.50
2019-02-14T09:39:40.888Z,15.60
2019-02-14T09:40:38.185Z,17.10
2019-02-14T09:41:38.203Z,17.90
2019-02-14T09:42:38.149Z,18.40
2019-02-14T09:43:38.201Z,13.40
2019-02-14T09:44:38.129Z,13.20
2019-02-14T09:45:38.120Z,16.20
2019-02-14T09:46:38.108Z,14.00
2019-02-14T09:47:38.099Z,16.00
2019-02-14T09:48:38.086Z,15.80
2019-02-14T09:49:38.131Z,16.20
2019-02-14T09:50:38.071Z,16.50
2019-02-14T09:51:38.071Z,16.40
2019-02-14T09:52:38.082Z,15.20
2019-02-14T09:53:38.031Z,16.70
2019-02-14T09:54:38.290Z,15.90
2019-02-14T09:55:38.012Z,17.40
2019-02-14T09:56:38.019Z,15.70
2019-02-14T09:57:38.006Z,16.10
2019-02-14T09:58:37.980Z,14.80
2019-02-14T09:59:38.018Z,17.00
2019-02-14T10:00:37.965Z,15.00
2019-02-14T10:01:37.965Z,14.10
2019-02-14T10:02:37.962Z,16.40
2019-02-14T10:03:37.929Z,15.00
2019-02-14T10:04:37.932Z,14.00
2019-02-14T10:05:37.903Z,16.00
2019-02-14T10:06:37.903Z,16.40
2019-02-14T10:07:37.892Z,17.10
2019-02-14T10:08:38.054Z,15.00
2019-02-14T10:09:37.886Z,15.90
2019-02-14T10:10:37.880Z,16.40
2019-02-14T10:11:37.877Z,13.50
2019-02-14T10:12:37.828Z,15.40
2019-02-14T10:13:37.833Z,15.30
2019-02-14T10:14:37.861Z,15.10
2019-02-14T10:15:37.793Z,15.60
2019-02-14T10:16:37.783Z,15.50
2019-02-14T10:17:37.782Z,20.00
2019-02-14T10:18:37.760Z,14.40
2019-02-14T10:19:37.755Z,13.40
2019-02-14T10:20:37.770Z,15.60
2019-02-14T10:21:37.734Z,15.80
2019-02-14T10:22:37.718Z,14.10
2019-02-14T10:23:37.710Z,12.80
2019-02-14T10:24:37.702Z,18.60
2019-02-14T10:25:37.713Z,12.90
2019-02-14T10:26:37.690Z,14.50
2019-02-14T10:27:37.686Z,14.30
2019-02-14T10:28:37.661Z,14.60
2019-02-14T10:29:37.654Z,17.60
2019-02-14T10:30:37.658Z,14.80
2019-02-14T10:31:37.624Z,15.10
2019-02-14T10:32:37.627Z,14.00
2019-02-14T10:33:37.607Z,13.50
2019-02-14T10:34:37.614Z,15.40
2019-02-14T10:35:37.634Z,12.70
2019-02-14T10:36:37.606Z,13.90
2019-02-14T10:37:37.588Z,14.50
2019-02-14T10:38:37.547Z,14.10
2019-02-14T10:39:37.538Z,13.60
2019-02-14T10:40:37.531Z,14.80
2019-02-14T10:41:37.544Z,13.90
2019-02-14T10:42:37.518Z,13.30
2019-02-14T10:43:37.494Z,13.30
2019-02-14T10:44:37.488Z,15.30
2019-02-14T10:45:37.472Z,14.10
2019-02-14T10:46:37.490Z,13.00
2019-02-14T10:47:37.585Z,13.50
2019-02-14T10:48:37.447Z,12.90
2019-02-14T10:49:37.431Z,13.00
2019-02-14T10:50:37.426Z,13.10
2019-02-14T10:51:37.444Z,12.80
2019-02-14T10:52:37.402Z,15.50
2019-02-14T10:53:37.391Z,13.90
2019-02-14T10:54:37.385Z,13.20
2019-02-14T10:55:37.370Z,11.90
2019-02-14T10:56:37.377Z,14.50
2019-02-14T10:57:37.370Z,13.30
2019-02-14T10:58:37.377Z,16.10
2019-02-14T10:59:37.331Z,13.40
2019-02-14T11:00:37.323Z,15.20
2019-02-14T11:01:37.342Z,12.40
2019-02-14T11:02:37.310Z,12.90
2019-02-14T11:03:37.282Z,13.70
2019-02-14T11:04:37.282Z,11.60
2019-02-14T11:05:37.270Z,11.90
2019-02-14T11:06:37.268Z,11.90
2019-02-14T11:07:37.235Z,15.10
2019-02-14T11:08:37.227Z,11.50
2019-02-14T11:09:37.222Z,14.70
2019-02-14T11:10:37.205Z,14.10
2019-02-14T11:11:37.233Z,13.40
2019-02-14T11:12:37.214Z,13.70
2019-02-14T11:13:37.230Z,12.70
2019-02-14T11:14:37.170Z,14.90
2019-02-14T11:15:37.169Z,15.40
2019-02-14T11:16:37.152Z,12.10
2019-02-14T11:17:37.174Z,14.00
2019-02-14T11:18:43.949Z,13.30
2019-02-14T11:19:38.108Z,13.50
2019-02-14T11:20:37.124Z,16.20
2019-02-14T11:21:37.091Z,17.60
2019-02-14T11:22:37.113Z,13.50
2019-02-14T11:23:37.075Z,13.50
2019-02-14T11:24:37.063Z,14.00
2019-02-14T11:25:37.046Z,15.40
2019-02-14T11:26:37.060Z,13.20
2019-02-14T11:27:37.062Z,15.80
2019-02-14T11:28:37.019Z,12.00
2019-02-14T11:29:36.997Z,17.10
2019-02-14T11:30:37.014Z,15.40
2019-02-14T11:31:36.981Z,15.50
2019-02-14T11:32:36.987Z,14.70
2019-02-14T11:33:36.956Z,15.10
2019-02-14T11:34:36.986Z,13.10
2019-02-14T11:35:36.976Z,13.50
2019-02-14T11:36:36.945Z,12.60
2019-02-14T11:37:36.924Z,12.70
2019-02-14T11:38:40.675Z,13.00
2019-02-14T11:39:36.890Z,16.80
2019-02-14T11:40:36.887Z,12.50
2019-02-14T11:41:36.907Z,17.40
2019-02-14T11:42:36.896Z,16.30
2019-02-14T11:43:36.860Z,13.00
2019-02-14T11:44:39.744Z,12.10
2019-02-14T11:45:36.849Z,12.60
2019-02-14T11:46:36.818Z,10.40
2019-02-14T11:47:36.828Z,13.50
2019-02-14T11:48:36.814Z,10.80
2019-02-14T11:49:36.794Z,11.10
2019-02-14T11:50:44.325Z,13.00
2019-02-14T11:51:36.791Z,11.40
2019-02-14T11:52:36.772Z,12.40
2019-02-14T11:53:36.775Z,11.90
2019-02-14T11:54:36.738Z,10.90
2019-02-14T11:55:36.723Z,13.20
2019-02-14T11:56:36.711Z,11.50
2019-02-14T11:57:46.580Z,11.20
2019-02-14T11:58:36.684Z,13.10
2019-02-14T11:59:44.219Z,10.30
2019-02-14T12:00:44.219Z,13.20
2019-02-14T12:01:45.657Z,13.00
2019-02-14T12:02:53.385Z,13.40
2019-02-14T12:04:46.859Z,16.10
2019-02-14T12:05:46.852Z,12.00
2019-02-14T12:06:46.971Z,11.60
2019-02-14T12:07:46.830Z,11.60
2019-02-14T12:08:57.771Z,10.10
2019-02-14T12:09:47.834Z,10.70
2019-02-14T12:10:46.800Z,10.40
2019-02-14T12:11:46.796Z,8.80
2019-02-14T12:12:46.811Z,10.70
2019-02-14T12:13:46.767Z,9.90
2019-02-14T12:14:46.787Z,11.50
2019-02-14T12:15:46.764Z,10.90
2019-02-14T12:16:46.729Z,13.20
2019-02-14T12:17:46.743Z,11.00
2019-02-14T12:18:46.722Z,9.80
2019-02-14T12:19:48.755Z,10.30
2019-02-14T12:20:47.982Z,12.10
2019-02-14T12:21:46.679Z,12.50
2019-02-14T12:22:47.408Z,10.10
2019-02-14T12:23:46.656Z,13.80
2019-02-14T12:24:46.659Z,11.20
2019-02-14T12:25:46.662Z,11.00
2019-02-14T12:26:46.644Z,15.40
2019-02-14T12:27:46.625Z,12.60
2019-02-14T12:28:46.638Z,13.00
2019-02-14T12:29:46.598Z,11.10
2019-02-14T12:30:46.578Z,10.40
2019-02-14T12:31:46.571Z,10.30
2019-02-14T12:32:46.596Z,9.90
2019-02-14T12:33:46.565Z,11.00
2019-02-14T12:34:46.558Z,9.90
2019-02-14T12:35:46.679Z,7.80
2019-02-14T12:36:46.526Z,8.40
2019-02-14T12:37:46.570Z,10.30
2019-02-14T12:38:46.542Z,12.00
2019-02-14T12:39:46.545Z,9.10
2019-02-14T12:40:46.478Z,7.50
2019-02-14T12:41:46.459Z,15.30
2019-02-14T12:42:46.497Z,7.90
2019-02-14T12:43:46.455Z,12.00
2019-02-14T12:44:46.452Z,10.10
2019-02-14T12:45:46.412Z,7.90
2019-02-14T12:46:46.406Z,11.10
2019-02-14T12:47:46.394Z,10.00
2019-02-14T12:48:46.465Z,11.60
2019-02-14T12:49:46.367Z,11.10
2019-02-14T12:50:46.368Z,11.40
2019-02-14T12:51:46.368Z,7.90
2019-02-14T12:52:46.340Z,9.30
2019-02-14T12:53:46.331Z,8.90
2019-02-14T12:54:46.338Z,9.40
2019-02-14T12:55:47.701Z,8.30
2019-02-14T12:56:46.322Z,11.90
2019-02-14T12:57:46.285Z,10.70
2019-02-14T12:58:46.271Z,12.00
2019-02-14T12:59:46.283Z,10.30
2019-02-14T13:00:46.252Z,10.80
2019-02-14T13:01:46.241Z,8.10